Time;durP1;ratioP1;P1;durP2;ratioP2;P2;SDS_P1;SDS_P2;PMS_P1;PMS_P2;Temp;Humidity;BMP_temperature;BMP_pressure;BME280_temperature;BME280_humidity;BME280_pressure;Samples;Min_cycle;Max_cycle;Signal;HPM_P1;HPM_P2
2021/12/15 00:02:01;;;;;;;1.63;1.13;;;5.70;99.90;;;;;;4995416;28;20496;-80
2021/12/15 00:04:28;;;;;;;4.40;0.53;;;5.70;99.90;;;;;;4995144;28;20492;-80
2021/12/15 00:06:55;;;;;;;0.70;0.40;;;5.70;99.90;;;;;;4995507;28;20455;-80
2021/12/15 00:09:22;;;;;;;0.40;0.40;;;5.70;99.90;;;;;;4994787;28;20445;-80
2021/12/15 00:11:49;;;;;;;0.37;0.30;;;5.80;99.90;;;;;;4995081;28;20464;-80
2021/12/15 00:14:19;;;;;;;0.30;0.20;;;5.80;99.90;;;;;;4995708;28;20531;-80
2021/12/15 00:16:50;;;;;;;0.30;0.30;;;5.80;99.90;;;;;;4995329;28;20440;-80
2021/12/15 00:19:18;;;;;;;2.33;0.90;;;5.80;99.90;;;;;;4995354;28;20441;-80
2021/12/15 00:21:45;;;;;;;0.30;0.30;;;5.80;99.90;;;;;;4994719;28;20996;-80
2021/12/15 00:24:12;;;;;;;0.60;0.60;;;5.90;99.90;;;;;;4995126;28;20460;-80
2021/12/15 00:26:40;;;;;;;0.40;0.37;;;5.90;99.90;;;;;;4995058;28;20448;-80
2021/12/15 00:29:07;;;;;;;0.43;0.43;;;5.80;99.90;;;;;;4995054;28;20448;-80
2021/12/15 00:31:37;;;;;;;0.30;0.20;;;5.80;99.90;;;;;;4994943;28;20476;-80
2021/12/15 00:34:07;;;;;;;0.30;0.30;;;5.80;99.90;;;;;;4995079;28;20452;-80
2021/12/15 00:36:34;;;;;;;0.30;0.20;;;5.80;99.90;;;;;;4995361;28;20488;-80
2021/12/15 00:39:00;;;;;;;0.40;0.27;;;5.80;99.90;;;;;;4994664;28;20956;-80
2021/12/15 00:41:27;;;;;;;0.50;0.50;;;5.80;99.90;;;;;;4994636;28;20468;-80
2021/12/15 00:43:54;;;;;;;0.70;0.40;;;5.80;99.90;;;;;;4994779;28;20444;-80
2021/12/15 00:46:22;;;;;;;0.30;0.30;;;5.80;99.90;;;;;;4994610;28;20867;-80
2021/12/15 00:48:50;;;;;;;0.50;0.50;;;5.80;99.90;;;;;;4994676;28;20453;-80
2021/12/15 00:51:17;;;;;;;0.90;0.80;;;5.80;99.90;;;;;;4994539;28;20487;-80
2021/12/15 00:53:44;;;;;;;0.30;0.30;;;5.80;99.90;;;;;;4994631;28;20445;-79
2021/12/15 00:56:11;;;;;;;2.70;2.50;;;5.80;99.90;;;;;;4994530;28;20445;-80
2021/12/15 00:58:38;;;;;;;0.40;0.37;;;5.80;99.90;;;;;;4994550;28;20451;-80
2021/12/15 01:01:06;;;;;;;0.60;0.60;;;5.80;99.90;;;;;;4994379;28;20480;-80
2021/12/15 01:03:33;;;;;;;0.60;0.60;;;5.80;99.90;;;;;;4993874;28;20865;-80
2021/12/15 01:06:08;;;;;;;4.30;0.70;;;5.80;99.90;;;;;;4994079;28;20952;-80
2021/12/15 01:08:40;;;;;;;0.30;0.30;;;5.80;99.90;;;;;;4994435;28;20436;-80
2021/12/15 01:11:15;;;;;;;0.30;0.30;;;5.80;99.90;;;;;;4994253;28;20464;-80
2021/12/15 01:22:06;;;;;;;0.40;0.40;;;5.90;99.90;;;;;;4993204;28;20526;-80
2021/12/15 01:24:33;;;;;;;0.60;0.60;;;5.90;99.90;;;;;;4994136;28;20456;-80
2021/12/15 01:27:00;;;;;;;0.60;0.43;;;5.90;99.90;;;;;;4994115;28;20479;-80
2021/12/15 01:29:27;;;;;;;0.30;0.20;;;5.90;99.90;;;;;;4994100;28;20528;-80
2021/12/15 01:31:54;;;;;;;0.40;0.30;;;5.90;99.90;;;;;;4994030;28;20503;-80
2021/12/15 01:34:20;;;;;;;0.30;0.20;;;5.90;99.90;;;;;;4993928;28;20460;-80
2021/12/15 01:36:47;;;;;;;0.80;0.80;;;5.90;99.90;;;;;;4993765;28;20444;-80
2021/12/15 01:39:15;;;;;;;0.40;0.40;;;6.00;99.90;;;;;;4994066;28;20535;-80
2021/12/15 01:41:43;;;;;;;0.30;0.30;;;5.90;99.90;;;;;;4993497;28;20472;-80
2021/12/15 01:46:59;;;;;;;0.30;0.30;;;5.90;99.90;;;;;;4994002;28;20404;-79
2021/12/15 01:49:34;;;;;;;0.40;0.30;;;5.80;99.90;;;;;;4993939;28;20531;-80
2021/12/15 01:52:03;;;;;;;0.40;0.40;;;5.90;99.90;;;;;;4993795;28;20456;-80
2021/12/15 01:54:32;;;;;;;0.50;0.50;;;5.90;99.90;;;;;;4993823;28;20471;-80
2021/12/15 01:56:59;;;;;;;0.83;0.83;;;5.90;99.90;;;;;;4994121;28;20449;-80
2021/12/15 01:59:29;;;;;;;0.30;0.30;;;5.90;99.90;;;;;;4993748;28;20451;-80
2021/12/15 02:01:56;;;;;;;0.30;0.30;;;5.90;99.90;;;;;;4993673;28;20472;-80
2021/12/15 02:04:22;;;;;;;0.77;0.77;;;5.80;99.90;;;;;;4993407;28;20484;-80
2021/12/15 02:06:50;;;;;;;1.13;0.73;;;5.80;99.90;;;;;;4993773;28;20452;-80
2021/12/15 02:09:32;;;;;;;0.30;0.20;;;5.80;99.90;;;;;;4993814;28;20451;-80
2021/12/15 02:12:01;;;;;;;0.73;0.73;;;5.80;99.90;;;;;;4993397;28;20942;-80
2021/12/15 02:14:30;;;;;;;0.30;0.27;;;5.80;99.90;;;;;;4993618;28;20445;-80
2021/12/15 02:16:57;;;;;;;0.83;0.83;;;5.80;99.90;;;;;;4993665;28;20448;-80
2021/12/15 02:19:24;;;;;;;0.47;0.47;;;5.80;99.90;;;;;;4993647;28;20456;-80
2021/12/15 02:21:52;;;;;;;0.60;0.60;;;5.90;99.90;;;;;;4993526;28;20841;-79
2021/12/15 02:24:19;;;;;;;0.73;0.73;;;5.80;99.90;;;;;;4993507;28;20487;-80
2021/12/15 02:26:50;;;;;;;0.40;0.30;;;5.80;99.90;;;;;;4993523;28;20441;-80
2021/12/15 02:29:20;;;;;;;0.30;0.30;;;5.80;99.90;;;;;;4993568;28;20444;-79
2021/12/15 02:32:00;;;;;;;0.30;0.30;;;5.80;99.90;;;;;;4993729;28;20484;-79
2021/12/15 02:37:17;;;;;;;0.30;0.30;;;5.80;99.90;;;;;;4964500;28;20433;-79
2021/12/15 02:39:47;;;;;;;0.40;0.33;;;5.80;99.90;;;;;;4997156;28;20444;-79
2021/12/15 02:42:14;;;;;;;0.30;0.30;;;5.70;99.90;;;;;;4996876;28;20464;-78
2021/12/15 02:44:43;;;;;;;1.50;0.70;;;5.70;99.90;;;;;;4997424;28;20459;-78
2021/12/15 02:47:11;;;;;;;0.60;0.50;;;5.70;99.90;;;;;;4996994;28;20444;-79
2021/12/15 02:49:39;;;;;;;0.57;0.37;;;5.70;99.90;;;;;;4996908;28;20455;-79
2021/12/15 02:52:06;;;;;;;0.70;0.70;;;5.70;99.90;;;;;;4996879;28;20472;-79
2021/12/15 02:54:35;;;;;;;0.50;0.50;;;5.70;99.90;;;;;;4996867;28;20459;-79
2021/12/15 02:57:07;;;;;;;1.70;0.70;;;5.60;99.90;;;;;;4996830;28;20452;-78
2021/12/15 02:59:44;;;;;;;0.40;0.40;;;5.60;99.90;;;;;;4997535;28;20448;-79
2021/12/15 03:02:22;;;;;;;0.40;0.30;;;5.60;99.90;;;;;;4996334;28;20471;-78
2021/12/15 03:04:55;;;;;;;0.30;0.20;;;5.60;99.90;;;;;;4996308;28;20488;-79
2021/12/15 03:07:31;;;;;;;0.30;0.30;;;5.60;99.90;;;;;;4996353;28;20532;-79
2021/12/15 03:15:35;;;;;;;0.30;0.30;;;5.70;99.90;;;;;;4996541;28;20900;-78
2021/12/15 03:18:07;;;;;;;0.30;0.30;;;5.70;99.90;;;;;;4996427;28;20779;-78
2021/12/15 03:20:36;;;;;;;0.33;0.33;;;5.70;99.90;;;;;;4996149;28;20464;-78
2021/12/15 03:23:05;;;;;;;0.30;0.30;;;5.80;99.90;;;;;;4996289;28;20851;-78
2021/12/15 03:25:33;;;;;;;0.40;0.40;;;5.70;99.90;;;;;;4996281;28;20452;-78
2021/12/15 03:33:42;;;;;;;0.37;0.30;;;5.80;99.90;;;;;;4996263;28;20528;-79
2021/12/15 03:36:22;;;;;;;0.47;0.47;;;5.70;99.90;;;;;;4996088;28;20444;-79
2021/12/15 03:38:48;;;;;;;0.30;0.20;;;5.70;99.90;;;;;;4996119;28;20436;-78
2021/12/15 03:41:16;;;;;;;0.30;0.30;;;5.60;99.90;;;;;;4995775;28;20479;-79
2021/12/15 03:43:43;;;;;;;0.30;0.27;;;5.60;99.90;;;;;;4995531;28;20487;-78
2021/12/15 03:46:15;;;;;;;0.50;0.30;;;5.60;99.90;;;;;;4995493;28;20453;-79
2021/12/15 03:48:44;;;;;;;0.40;0.30;;;5.60;99.90;;;;;;4995909;28;20428;-78
2021/12/15 03:51:13;;;;;;;0.60;0.50;;;5.60;99.90;;;;;;4995933;28;20475;-79
2021/12/15 03:53:39;;;;;;;0.30;0.20;;;5.60;99.90;;;;;;4995976;28;20452;-79
2021/12/15 03:56:09;;;;;;;1.37;0.97;;;5.60;99.90;;;;;;4995707;28;20456;-79
2021/12/15 03:58:37;;;;;;;0.50;0.30;;;5.70;99.90;;;;;;4995859;28;20444;-79
2021/12/15 04:01:14;;;;;;;0.30;0.20;;;5.70;99.90;;;;;;4995554;28;20472;-79
2021/12/15 04:03:44;;;;;;;0.30;0.30;;;5.60;99.90;;;;;;4995273;28;20496;-79
2021/12/15 04:06:15;;;;;;;0.40;0.30;;;5.70;99.90;;;;;;4995349;28;20544;-78
2021/12/15 04:08:42;;;;;;;0.30;0.20;;;5.70;99.90;;;;;;4995495;28;20441;-78
2021/12/15 04:11:12;;;;;;;0.30;0.23;;;5.60;99.90;;;;;;4995356;28;20453;-79
2021/12/15 04:13:42;;;;;;;0.30;0.30;;;5.60;99.90;;;;;;4995026;28;20826;-78
2021/12/15 04:16:25;;;;;;;0.30;0.27;;;5.50;99.90;;;;;;4995351;28;20528;-78
2021/12/15 04:18:52;;;;;;;0.30;0.20;;;5.60;99.90;;;;;;4996096;28;20437;-78
2021/12/15 04:21:19;;;;;;;0.43;0.40;;;5.60;99.90;;;;;;4995005;28;20878;-78
2021/12/15 04:23:50;;;;;;;0.30;0.20;;;5.60;99.90;;;;;;4994846;28;20483;-79
2021/12/15 04:26:17;;;;;;;0.30;0.20;;;5.60;99.90;;;;;;4995144;28;20433;-78
2021/12/15 04:28:45;;;;;;;0.30;0.30;;;5.50;99.90;;;;;;4995107;28;20524;-79
2021/12/15 04:31:16;;;;;;;0.30;0.30;;;5.50;99.90;;;;;;4994683;28;20976;-79
2021/12/15 04:33:50;;;;;;;0.30;0.20;;;5.50;99.90;;;;;;4994966;28;20444;-78
2021/12/15 04:36:17;;;;;;;0.50;0.50;;;5.60;99.90;;;;;;4994618;28;20782;-78
2021/12/15 04:38:45;;;;;;;0.30;0.30;;;5.60;99.90;;;;;;4994920;28;20449;-78
2021/12/15 04:41:16;;;;;;;0.30;0.20;;;5.60;99.90;;;;;;4994716;28;20479;-79
2021/12/15 04:43:43;;;;;;;1.27;1.17;;;5.60;99.90;;;;;;4994806;28;20476;-79
2021/12/15 04:46:13;;;;;;;0.40;0.40;;;5.60;99.90;;;;;;4994493;28;20433;-78
2021/12/15 04:48:41;;;;;;;0.40;0.30;;;5.70;99.90;;;;;;4994438;28;20451;-78
2021/12/15 04:51:08;;;;;;;0.40;0.30;;;5.70;99.90;;;;;;4994696;28;20476;-78
2021/12/15 04:53:37;;;;;;;0.30;0.20;;;5.60;99.90;;;;;;4994632;28;20461;-78
2021/12/15 04:56:04;;;;;;;0.30;0.27;;;5.60;99.90;;;;;;4994278;28;21046;-78
2021/12/15 04:58:31;;;;;;;0.60;0.60;;;5.60;99.90;;;;;;4994249;28;20456;-78
2021/12/15 05:01:01;;;;;;;0.30;0.30;;;5.60;99.90;;;;;;4994157;28;20457;-78
2021/12/15 05:03:29;;;;;;;0.90;0.40;;;5.60;99.90;;;;;;4993957;28;20479;-79
2021/12/15 05:05:56;;;;;;;0.40;0.40;;;5.60;99.90;;;;;;4994496;28;20429;-78
2021/12/15 05:08:23;;;;;;;0.60;0.40;;;5.60;99.90;;;;;;4994276;28;20452;-79
2021/12/15 05:10:54;;;;;;;0.30;0.30;;;5.60;99.90;;;;;;4994334;28;20480;-78
2021/12/15 05:13:21;;;;;;;0.30;0.30;;;5.60;99.90;;;;;;4994094;28;20943;-79
2021/12/15 05:15:48;;;;;;;0.30;0.20;;;5.60;99.90;;;;;;4994316;28;20451;-79
2021/12/15 05:18:15;;;;;;;0.60;0.60;;;5.60;99.90;;;;;;4994253;28;20455;-78
2021/12/15 05:20:47;;;;;;;0.60;0.60;;;5.60;99.90;;;;;;4993799;28;20469;-79
2021/12/15 05:23:16;;;;;;;0.40;0.27;;;5.60;99.90;;;;;;4994150;28;20468;-79
2021/12/15 05:25:43;;;;;;;0.30;0.20;;;5.60;99.90;;;;;;4994152;28;20448;-78
2021/12/15 05:28:10;;;;;;;0.30;0.20;;;5.60;99.90;;;;;;4994129;28;20459;-78
2021/12/15 05:30:38;;;;;;;0.30;0.20;;;5.60;99.90;;;;;;4994031;28;20479;-79
2021/12/15 05:33:05;;;;;;;0.40;0.30;;;5.60;99.90;;;;;;4994049;28;20459;-78
2021/12/15 05:35:33;;;;;;;0.50;0.50;;;5.60;99.90;;;;;;4993762;28;20452;-78
2021/12/15 05:38:03;;;;;;;0.30;0.27;;;5.60;99.90;;;;;;4994713;28;20452;-78
2021/12/15 05:40:31;;;;;;;0.30;0.30;;;5.60;99.90;;;;;;4993649;28;20485;-79
2021/12/15 05:42:59;;;;;;;0.40;0.40;;;5.60;99.90;;;;;;4993898;28;20448;-78
2021/12/15 05:45:27;;;;;;;0.30;0.30;;;5.60;99.90;;;;;;4993962;28;20445;-79
2021/12/15 05:47:55;;;;;;;0.30;0.30;;;5.50;99.90;;;;;;4993860;28;20453;-79
2021/12/15 05:50:22;;;;;;;0.30;0.30;;;5.50;99.90;;;;;;4994424;28;20448;-79
2021/12/15 05:52:49;;;;;;;0.30;0.30;;;5.60;99.90;;;;;;4994105;28;20449;-79
2021/12/15 05:55:19;;;;;;;0.30;0.30;;;5.60;99.90;;;;;;4993887;28;20444;-79
2021/12/15 05:57:46;;;;;;;0.40;0.30;;;5.60;99.90;;;;;;4993544;28;20444;-79
2021/12/15 06:00:16;;;;;;;0.50;0.50;;;5.60;99.90;;;;;;4993834;28;20448;-79
2021/12/15 06:02:43;;;;;;;0.30;0.20;;;5.60;99.90;;;;;;4993821;28;20452;-78
2021/12/15 06:05:11;;;;;;;0.40;0.40;;;5.60;99.90;;;;;;4993337;28;20496;-79
2021/12/15 06:07:38;;;;;;;0.30;0.30;;;5.70;99.90;;;;;;4994308;28;20951;-78
2021/12/15 06:10:05;;;;;;;1.80;0.63;;;5.60;99.90;;;;;;4997662;28;20812;-79
2021/12/15 06:12:34;;;;;;;0.30;0.20;;;5.60;99.90;;;;;;4997658;28;20448;-79
2021/12/15 06:15:02;;;;;;;0.30;0.20;;;5.60;99.90;;;;;;4997636;28;20444;-79
2021/12/15 06:17:29;;;;;;;0.30;0.30;;;5.70;99.90;;;;;;4997570;28;20543;-79
2021/12/15 06:19:57;;;;;;;0.30;0.20;;;5.60;99.90;;;;;;4997231;28;20448;-79
2021/12/15 06:22:27;;;;;;;0.30;0.30;;;5.60;99.90;;;;;;4997194;28;20455;-79
2021/12/15 06:24:54;;;;;;;0.30;0.20;;;5.60;99.90;;;;;;4997957;28;20471;-79
2021/12/15 06:27:21;;;;;;;0.40;0.30;;;5.60;99.90;;;;;;4997092;28;20440;-79
2021/12/15 06:29:51;;;;;;;0.30;0.20;;;5.60;99.90;;;;;;4997316;28;20452;-79
2021/12/15 06:32:18;;;;;;;0.30;0.20;;;5.50;99.90;;;;;;4997190;28;20460;-79
2021/12/15 06:34:45;;;;;;;0.37;0.27;;;5.50;99.90;;;;;;4997342;28;20448;-84
2021/12/15 06:37:12;;;;;;;0.37;0.30;;;5.50;99.90;;;;;;4997458;28;20452;-85
2021/12/15 06:39:40;;;;;;;0.97;0.53;;;5.50;99.90;;;;;;4997410;28;20437;-85
2021/12/15 06:42:07;;;;;;;0.30;0.30;;;5.50;99.90;;;;;;4997175;28;20994;-84
2021/12/15 06:44:34;;;;;;;1.60;1.07;;;5.60;99.90;;;;;;4997317;28;21003;-85
2021/12/15 06:47:36;;;;;;;0.30;0.30;;;5.60;99.90;;;;;;4997102;28;20441;-85
2021/12/15 06:58:23;;;;;;;0.40;0.33;;;5.60;99.90;;;;;;4997090;28;20428;-85
2021/12/15 07:00:53;;;;;;;0.30;0.20;;;5.60;99.90;;;;;;4997017;28;20456;-84
2021/12/15 07:03:22;;;;;;;0.30;0.23;;;5.50;99.90;;;;;;4996530;28;20432;-84
2021/12/15 07:05:49;;;;;;;0.30;0.20;;;5.50;99.90;;;;;;4997282;28;20919;-84
2021/12/15 07:08:16;;;;;;;0.40;0.40;;;5.50;99.90;;;;;;4997141;28;20461;-85
2021/12/15 07:10:45;;;;;;;0.33;0.27;;;5.60;99.90;;;;;;4997142;28;20552;-85
2021/12/15 07:13:13;;;;;;;0.30;0.30;;;5.60;99.90;;;;;;4997185;28;20452;-85
2021/12/15 07:15:40;;;;;;;0.30;0.20;;;5.50;99.90;;;;;;4997073;28;20479;-82
2021/12/15 07:18:11;;;;;;;0.30;0.20;;;5.50;99.90;;;;;;4996677;28;20901;-83
2021/12/15 07:20:44;;;;;;;0.30;0.30;;;5.50;99.90;;;;;;4995451;28;20483;-83
2021/12/15 07:23:13;;;;;;;0.40;0.40;;;5.50;99.90;;;;;;4996547;28;20437;-84
2021/12/15 07:25:43;;;;;;;0.60;0.30;;;5.40;99.90;;;;;;4996469;28;20477;-84
2021/12/15 07:28:11;;;;;;;0.30;0.30;;;5.40;99.90;;;;;;4996537;28;20904;-82
2021/12/15 07:30:39;;;;;;;0.30;0.30;;;5.50;99.90;;;;;;4996834;28;20472;-84
2021/12/15 07:33:07;;;;;;;0.30;0.30;;;5.50;99.90;;;;;;4996527;28;20432;-84
2021/12/15 07:35:35;;;;;;;1.10;0.57;;;5.60;99.90;;;;;;4996346;28;20500;-84
2021/12/15 07:38:03;;;;;;;0.30;0.20;;;5.50;99.90;;;;;;4996249;28;20435;-84
2021/12/15 07:40:31;;;;;;;0.30;0.23;;;5.50;99.90;;;;;;4996365;28;20459;-84
2021/12/15 07:43:08;;;;;;;0.30;0.30;;;5.50;99.90;;;;;;4996256;28;20533;-84
2021/12/15 07:45:39;;;;;;;0.30;0.20;;;5.40;99.90;;;;;;4996025;28;20468;-84
2021/12/15 07:48:08;;;;;;;0.47;0.47;;;5.50;99.90;;;;;;4996468;28;20425;-84
2021/12/15 07:50:37;;;;;;;0.40;0.40;;;5.50;99.90;;;;;;4996268;28;20468;-84
2021/12/15 07:53:06;;;;;;;0.30;0.20;;;5.50;99.90;;;;;;4996140;28;20452;-84
2021/12/15 07:55:33;;;;;;;0.30;0.30;;;5.60;99.90;;;;;;4995734;28;20803;-85
2021/12/15 07:58:02;;;;;;;0.30;0.30;;;5.70;99.90;;;;;;4995990;28;20445;-84
2021/12/15 08:00:29;;;;;;;0.30;0.30;;;5.80;99.90;;;;;;4995883;28;20479;-84
2021/12/15 08:02:56;;;;;;;0.60;0.60;;;5.70;99.90;;;;;;4995858;28;20448;-84
2021/12/15 08:05:23;;;;;;;0.30;0.30;;;5.60;99.90;;;;;;4995334;28;20492;-84
2021/12/15 08:07:50;;;;;;;0.67;0.67;;;5.60;99.90;;;;;;4995867;28;20955;-84
2021/12/15 08:10:18;;;;;;;0.50;0.30;;;5.60;99.90;;;;;;4995674;28;20448;-84
2021/12/15 08:12:47;;;;;;;0.30;0.30;;;5.70;99.90;;;;;;4995769;28;20457;-84
2021/12/15 08:15:17;;;;;;;0.30;0.30;;;5.60;99.90;;;;;;4995507;28;20449;-84
2021/12/15 08:17:48;;;;;;;0.40;0.40;;;5.50;99.90;;;;;;4995659;28;20433;-84
2021/12/15 08:20:15;;;;;;;0.30;0.20;;;5.40;99.90;;;;;;4995390;28;20440;-84
2021/12/15 08:22:42;;;;;;;0.30;0.30;;;5.50;99.90;;;;;;4995452;28;20440;-84
2021/12/15 08:25:16;;;;;;;0.40;0.40;;;5.50;99.90;;;;;;4995197;28;20872;-85
2021/12/15 08:27:45;;;;;;;0.30;0.20;;;5.50;99.90;;;;;;4995516;28;20436;-84
2021/12/15 08:30:19;;;;;;;0.30;0.30;;;5.50;99.90;;;;;;4995218;28;20456;-84
2021/12/15 08:32:46;;;;;;;0.40;0.40;;;5.50;99.90;;;;;;4996056;28;20444;-84
2021/12/15 08:35:13;;;;;;;0.50;0.40;;;5.60;99.90;;;;;;4995016;28;20440;-84
2021/12/15 08:37:40;;;;;;;0.30;0.30;;;5.50;99.90;;;;;;4995337;28;20452;-84
2021/12/15 08:40:08;;;;;;;0.40;0.40;;;5.50;99.90;;;;;;4996174;28;20494;-84
2021/12/15 08:42:35;;;;;;;0.40;0.40;;;5.50;99.90;;;;;;4995238;28;20449;-84
2021/12/15 08:45:04;;;;;;;0.93;0.93;;;5.60;99.90;;;;;;4994947;28;20587;-84
2021/12/15 08:47:31;;;;;;;0.30;0.30;;;5.60;99.90;;;;;;4995027;28;20452;-84
2021/12/15 08:49:58;;;;;;;0.30;0.20;;;5.70;99.90;;;;;;4995086;28;20453;-84
2021/12/15 08:52:25;;;;;;;0.70;0.47;;;5.70;99.90;;;;;;4994652;28;20476;-83
2021/12/15 08:54:52;;;;;;;1.47;0.40;;;5.70;99.90;;;;;;4994706;28;20452;-83
2021/12/15 08:57:19;;;;;;;0.30;0.30;;;5.60;99.90;;;;;;4994395;28;20921;-84
2021/12/15 08:59:45;;;;;;;0.30;0.30;;;5.60;99.90;;;;;;4995722;28;20548;-82
2021/12/15 09:02:13;;;;;;;0.30;0.30;;;5.50;99.90;;;;;;4994604;28;20476;-83
2021/12/15 09:04:40;;;;;;;1.00;0.40;;;5.40;99.90;;;;;;4994055;28;20500;-83
2021/12/15 09:07:07;;;;;;;0.30;0.30;;;5.30;99.90;;;;;;4994506;28;20459;-84
2021/12/15 09:09:34;;;;;;;0.30;0.30;;;5.40;99.90;;;;;;4994410;28;20459;-83
2021/12/15 09:12:02;;;;;;;0.30;0.20;;;5.40;99.90;;;;;;4994428;28;20476;-83
2021/12/15 09:14:31;;;;;;;0.30;0.20;;;5.40;99.90;;;;;;4994127;28;20817;-82
2021/12/15 09:17:00;;;;;;;0.77;0.77;;;5.50;99.90;;;;;;4994208;28;20453;-81
2021/12/15 09:19:30;;;;;;;0.30;0.20;;;5.60;99.90;;;;;;4994742;28;20439;-82
2021/12/15 09:21:57;;;;;;;0.30;0.20;;;5.50;99.90;;;;;;4995036;28;20548;-81
2021/12/15 09:24:26;;;;;;;0.30;0.20;;;5.50;99.90;;;;;;4994717;28;20484;-80
2021/12/15 09:26:53;;;;;;;0.63;0.50;;;5.50;99.90;;;;;;4994236;28;20459;-82
2021/12/15 09:29:20;;;;;;;0.30;0.30;;;5.50;99.90;;;;;;4994090;28;20476;-82
2021/12/15 09:31:47;;;;;;;0.30;0.20;;;5.60;99.90;;;;;;4993842;28;20464;-83
2021/12/15 09:34:17;;;;;;;0.43;0.43;;;5.60;99.90;;;;;;4994112;28;20452;-82
2021/12/15 09:36:47;;;;;;;0.30;0.30;;;5.60;99.90;;;;;;4994818;28;20808;-82
2021/12/15 09:39:16;;;;;;;0.30;0.30;;;5.60;99.90;;;;;;4994136;28;20440;-82
2021/12/15 09:41:43;;;;;;;0.40;0.40;;;5.60;99.90;;;;;;4993603;28;20476;-83
2021/12/15 09:44:13;;;;;;;0.50;0.50;;;5.50;99.90;;;;;;4993610;28;20452;-82
2021/12/15 09:47:07;;;;;;;0.40;0.40;;;5.40;99.90;;;;;;4994055;28;20488;-82
2021/12/15 10:03:29;;;;;;;0.30;0.20;;;5.40;99.90;;;;;;4993183;28;20513;-82
2021/12/15 10:06:04;;;;;;;0.40;0.40;;;5.40;99.90;;;;;;4993756;28;20472;-82
2021/12/15 10:19:40;;;;;;;0.30;0.30;;;5.40;99.90;;;;;;4993672;28;20404;-82
2021/12/15 10:22:14;;;;;;;0.50;0.50;;;5.40;99.90;;;;;;4993471;28;20480;-83
2021/12/15 10:24:48;;;;;;;0.60;0.60;;;5.40;99.90;;;;;;4993857;28;20472;-82
2021/12/15 10:27:31;;;;;;;0.30;0.30;;;5.40;99.90;;;;;;4993464;28;20413;-82
2021/12/15 10:30:00;;;;;;;0.30;0.30;;;5.40;99.90;;;;;;4993428;28;20443;-82
2021/12/15 10:32:33;;;;;;;0.30;0.20;;;5.40;99.90;;;;;;4993372;28;20820;-82
2021/12/15 10:35:01;;;;;;;0.30;0.30;;;5.40;99.90;;;;;;4993235;28;20936;-83
2021/12/15 10:37:28;;;;;;;0.30;0.30;;;5.40;99.90;;;;;;4993779;28;20448;-82
2021/12/15 10:40:13;;;;;;;0.30;0.30;;;5.40;99.90;;;;;;4993713;28;20488;-82
2021/12/15 10:42:40;;;;;;;0.30;0.20;;;5.40;99.90;;;;;;4993229;28;20933;-82
2021/12/15 10:45:10;;;;;;;0.30;0.27;;;5.40;99.90;;;;;;4993162;28;20493;-82
2021/12/15 10:47:42;;;;;;;0.40;0.40;;;5.40;99.90;;;;;;4993051;28;20948;-83
2021/12/15 10:50:13;;;;;;;0.30;0.30;;;5.50;99.90;;;;;;4993616;28;20433;-82
2021/12/15 10:52:55;;;;;;;0.30;0.20;;;5.40;99.90;;;;;;4993828;28;20796;-84
2021/12/15 10:55:30;;;;;;;0.30;0.20;;;5.30;99.90;;;;;;4997060;28;20464;-83
2021/12/15 10:57:56;;;;;;;0.50;0.50;;;5.20;99.90;;;;;;4996779;28;20792;-83
2021/12/15 11:00:24;;;;;;;0.40;0.40;;;5.20;99.90;;;;;;4996856;28;20499;-83
2021/12/15 11:02:50;;;;;;;0.40;0.30;;;5.20;99.90;;;;;;4996659;28;20445;-83
2021/12/15 11:05:21;;;;;;;0.53;0.53;;;5.20;99.90;;;;;;4996775;28;20500;-83
2021/12/15 11:07:52;;;;;;;0.30;0.20;;;5.20;99.90;;;;;;5000607;28;20444;-84
2021/12/15 11:10:22;;;;;;;0.30;0.20;;;5.20;99.90;;;;;;4997700;28;20463;-83
2021/12/15 11:12:53;;;;;;;0.30;0.30;;;5.10;99.90;;;;;;4996865;28;20939;-83
2021/12/15 11:15:25;;;;;;;0.30;0.20;;;5.20;99.90;;;;;;4996871;28;20437;-83
2021/12/15 11:17:55;;;;;;;0.30;0.20;;;5.20;99.90;;;;;;4996763;28;20432;-83
2021/12/15 11:20:24;;;;;;;0.30;0.20;;;5.20;99.90;;;;;;4996503;28;20452;-83
2021/12/15 11:22:55;;;;;;;0.30;0.30;;;5.20;99.90;;;;;;4996838;28;20452;-84
2021/12/15 11:25:39;;;;;;;0.30;0.20;;;5.20;99.90;;;;;;4996922;28;21007;-84
2021/12/15 11:28:12;;;;;;;0.30;0.30;;;5.20;99.90;;;;;;4997324;28;20484;-83
2021/12/15 11:30:43;;;;;;;0.30;0.30;;;5.30;99.90;;;;;;5000338;28;20475;-83
2021/12/15 11:33:13;;;;;;;0.30;0.20;;;5.20;99.90;;;;;;4997786;28;20441;-83
2021/12/15 11:35:44;;;;;;;0.30;0.20;;;5.20;99.90;;;;;;4996214;28;20789;-84
2021/12/15 11:38:16;;;;;;;0.30;0.20;;;5.30;99.90;;;;;;4996631;28;20445;-84
2021/12/15 11:40:47;;;;;;;0.30;0.20;;;5.40;99.90;;;;;;4996096;28;20445;-83
2021/12/15 11:43:30;;;;;;;0.30;0.20;;;5.40;99.90;;;;;;4996183;28;20433;-83
2021/12/15 11:45:58;;;;;;;0.30;0.20;;;5.50;99.90;;;;;;4996089;28;20468;-83
2021/12/15 11:48:28;;;;;;;0.67;0.40;;;5.50;99.90;;;;;;4996833;28;20819;-84
2021/12/15 11:50:59;;;;;;;0.70;0.70;;;5.40;99.90;;;;;;4996035;28;20468;-83
2021/12/15 11:53:35;;;;;;;0.40;0.40;;;5.40;99.90;;;;;;4996235;28;20429;-83
2021/12/15 11:56:14;;;;;;;0.30;0.30;;;5.30;99.90;;;;;;4996094;28;20436;-84
2021/12/15 11:58:43;;;;;;;0.30;0.30;;;5.30;99.90;;;;;;4995936;28;20456;-83
2021/12/15 12:01:10;;;;;;;0.50;0.30;;;5.30;99.90;;;;;;4995923;28;20909;-84
2021/12/15 12:03:37;;;;;;;0.30;0.30;;;5.20;99.90;;;;;;4995622;28;20855;-83
2021/12/15 12:06:04;;;;;;;0.30;0.30;;;5.20;99.90;;;;;;4995019;28;20546;-83
2021/12/15 12:08:31;;;;;;;0.30;0.30;;;5.30;99.90;;;;;;4995831;28;20437;-83
2021/12/15 12:11:05;;;;;;;0.30;0.20;;;5.20;99.90;;;;;;4995478;28;20595;-83
2021/12/15 12:13:38;;;;;;;0.30;0.30;;;5.20;99.90;;;;;;4995774;28;20495;-84
2021/12/15 12:16:08;;;;;;;0.40;0.40;;;5.20;99.90;;;;;;4995716;28;20468;-84
2021/12/15 12:18:36;;;;;;;0.30;0.20;;;5.10;99.90;;;;;;4995865;28;20452;-83
2021/12/15 12:21:07;;;;;;;0.40;0.40;;;5.20;99.90;;;;;;4995707;28;20882;-87
2021/12/15 12:23:35;;;;;;;1.17;0.50;;;5.20;99.90;;;;;;4995686;28;20436;-84
2021/12/15 12:26:06;;;;;;;0.30;0.20;;;5.20;99.90;;;;;;4995145;28;20488;-83
2021/12/15 12:28:35;;;;;;;0.30;0.20;;;5.20;99.90;;;;;;4995165;28;20420;-84
2021/12/15 12:31:05;;;;;;;0.30;0.20;;;5.20;99.90;;;;;;4995307;28;20477;-84
2021/12/15 12:33:34;;;;;;;0.43;0.43;;;5.20;99.90;;;;;;4995498;28;20812;-84
2021/12/15 12:36:05;;;;;;;0.30;0.20;;;5.30;99.90;;;;;;4995280;28;20448;-84
2021/12/15 12:38:34;;;;;;;0.30;0.30;;;5.30;99.90;;;;;;4995253;28;20417;-84
2021/12/15 12:41:04;;;;;;;0.30;0.20;;;5.30;99.90;;;;;;4995096;28;20457;-83
2021/12/15 12:43:33;;;;;;;0.30;0.20;;;5.30;99.90;;;;;;4994873;28;20459;-83
2021/12/15 12:46:09;;;;;;;0.30;0.20;;;5.30;99.90;;;;;;4994590;28;21022;-83
2021/12/15 12:59:59;;;;;;;0.67;0.40;;;5.10;99.90;;;;;;4994841;28;20452;-83
2021/12/15 13:02:49;;;;;;;0.30;0.20;;;5.00;99.90;;;;;;4994608;28;20479;-84
2021/12/15 13:05:35;;;;;;;0.30;0.20;;;5.00;99.90;;;;;;4991502;28;20510;-80
2021/12/15 13:08:04;;;;;;;0.30;0.20;;;5.00;99.90;;;;;;4994577;28;20436;-81
2021/12/15 13:10:55;;;;;;;0.50;0.50;;;5.00;99.90;;;;;;4994408;28;20469;-80
2021/12/15 13:13:25;;;;;;;0.30;0.20;;;4.90;99.90;;;;;;4994481;28;20443;-82
2021/12/15 13:15:54;;;;;;;0.30;0.30;;;4.90;99.90;;;;;;4994434;28;20417;-83
2021/12/15 13:18:21;;;;;;;0.30;0.30;;;4.90;99.90;;;;;;4993568;28;20531;-83
2021/12/15 13:20:57;;;;;;;0.47;0.47;;;5.00;99.90;;;;;;4994051;28;21010;-83
2021/12/15 13:23:43;;;;;;;0.30;0.30;;;5.00;99.90;;;;;;4993959;28;20908;-83
2021/12/15 13:29:21;;;;;;;0.40;0.37;;;5.00;99.90;;;;;;4994292;28;20489;-83
2021/12/15 13:31:58;;;;;;;0.30;0.20;;;4.90;99.90;;;;;;4994337;28;20468;-83
2021/12/15 13:34:41;;;;;;;0.30;0.30;;;4.90;99.90;;;;;;4994040;28;20421;-83
2021/12/15 13:37:11;;;;;;;0.30;0.23;;;5.00;99.90;;;;;;4994392;28;20425;-83
2021/12/15 13:39:45;;;;;;;0.50;0.50;;;5.10;99.90;;;;;;4995619;28;20900;-83
2021/12/15 13:42:15;;;;;;;0.40;0.40;;;5.10;99.90;;;;;;4995911;28;20507;-83
2021/12/15 13:44:45;;;;;;;0.30;0.30;;;5.10;99.90;;;;;;4994958;28;20440;-83
2021/12/15 13:47:18;;;;;;;0.30;0.30;;;5.10;99.90;;;;;;4997454;28;20472;-83
2021/12/15 13:49:47;;;;;;;0.30;0.20;;;5.10;99.90;;;;;;4999257;28;20440;-83
2021/12/15 13:52:34;;;;;;;0.30;0.20;;;5.20;99.90;;;;;;4993972;28;20473;-83
2021/12/15 13:55:16;;;;;;;0.30;0.30;;;5.20;99.90;;;;;;4994786;28;20432;-83
2021/12/15 13:58:15;;;;;;;0.37;0.37;;;5.10;99.90;;;;;;4993627;28;20448;-84
2021/12/15 14:00:49;;;;;;;0.30;0.30;;;5.00;99.90;;;;;;4986041;28;20840;-83
2021/12/15 14:03:20;;;;;;;0.30;0.30;;;5.00;99.90;;;;;;4993723;28;20436;-83
2021/12/15 14:05:49;;;;;;;0.30;0.20;;;5.00;99.90;;;;;;4993775;28;20468;-83
2021/12/15 14:08:20;;;;;;;0.30;0.30;;;5.00;99.90;;;;;;4993856;28;20459;-84
2021/12/15 14:10:58;;;;;;;0.40;0.37;;;4.90;99.90;;;;;;4993895;28;20476;-84
2021/12/15 14:13:43;;;;;;;0.30;0.30;;;5.00;99.90;;;;;;4993567;28;20447;-83
2021/12/15 14:16:10;;;;;;;0.30;0.20;;;5.00;99.90;;;;;;4993967;28;20428;-83
2021/12/15 14:18:37;;;;;;;0.30;0.30;;;5.00;99.90;;;;;;4993491;28;20457;-83
2021/12/15 14:21:08;;;;;;;0.30;0.30;;;4.90;99.90;;;;;;4993683;28;20472;-83
2021/12/15 14:23:38;;;;;;;0.40;0.30;;;5.00;99.90;;;;;;4993527;28;20961;-83
2021/12/15 14:26:09;;;;;;;0.40;0.40;;;5.00;99.90;;;;;;4993795;28;20465;-83